sensor_id;sensor_type;location;lat;lon;timestamp;temperature;humidity
3942;DHT22;1985;48.592;8.850;2023-06-14T00:02:13;18.30;54.60
3942;DHT22;1985;48.592;8.850;2023-06-14T00:04:38;18.20;53.60
3942;DHT22;1985;48.592;8.850;2023-06-14T00:07:07;18.20;53.30
3942;DHT22;1985;48.592;8.850;2023-06-14T00:09:35;18.30;53.50
3942;DHT22;1985;48.592;8.850;2023-06-14T00:12:01;18.30;53.30
3942;DHT22;1985;48.592;8.850;2023-06-14T00:14:27;18.30;53.30
3942;DHT22;1985;48.592;8.850;2023-06-14T00:16:52;18.30;53.20
3942;DHT22;1985;48.592;8.850;2023-06-14T00:19:18;18.20;53.30
3942;DHT22;1985;48.592;8.850;2023-06-14T00:21:45;18.20;53.90
3942;DHT22;1985;48.592;8.850;2023-06-14T00:24:11;18.10;53.80
3942;DHT22;1985;48.592;8.850;2023-06-14T00:26:37;18.10;54.10
3942;DHT22;1985;48.592;8.850;2023-06-14T00:29:02;18.00;54.00
3942;DHT22;1985;48.592;8.850;2023-06-14T00:31:28;17.90;54.90
3942;DHT22;1985;48.592;8.850;2023-06-14T00:33:54;17.80;55.10
3942;DHT22;1985;48.592;8.850;2023-06-14T00:36:19;17.80;54.60
3942;DHT22;1985;48.592;8.850;2023-06-14T00:38:45;17.70;54.90
3942;DHT22;1985;48.592;8.850;2023-06-14T00:41:11;17.70;54.80
3942;DHT22;1985;48.592;8.850;2023-06-14T00:43:36;17.70;54.80
3942;DHT22;1985;48.592;8.850;2023-06-14T00:46:02;17.70;54.50
3942;DHT22;1985;48.592;8.850;2023-06-14T00:48:28;17.70;55.00
3942;DHT22;1985;48.592;8.850;2023-06-14T00:50:56;17.70;54.70
3942;DHT22;1985;48.592;8.850;2023-06-14T00:53:23;17.60;54.40
3942;DHT22;1985;48.592;8.850;2023-06-14T00:55:50;17.70;54.40
3942;DHT22;1985;48.592;8.850;2023-06-14T00:58:16;17.60;55.00
3942;DHT22;1985;48.592;8.850;2023-06-14T01:00:42;17.60;54.50
3942;DHT22;1985;48.592;8.850;2023-06-14T01:03:08;17.60;54.50
3942;DHT22;1985;48.592;8.850;2023-06-14T01:05:37;17.60;54.90
3942;DHT22;1985;48.592;8.850;2023-06-14T01:08:24;17.70;55.00
3942;DHT22;1985;48.592;8.850;2023-06-14T01:10:59;17.70;54.70
3942;DHT22;1985;48.592;8.850;2023-06-14T01:13:35;17.60;54.50
3942;DHT22;1985;48.592;8.850;2023-06-14T01:16:02;17.60;54.30
3942;DHT22;1985;48.592;8.850;2023-06-14T01:18:29;17.60;54.80
3942;DHT22;1985;48.592;8.850;2023-06-14T01:20:55;17.60;54.70
3942;DHT22;1985;48.592;8.850;2023-06-14T01:23:22;17.60;54.60
3942;DHT22;1985;48.592;8.850;2023-06-14T01:25:49;17.60;54.50
3942;DHT22;1985;48.592;8.850;2023-06-14T01:28:19;17.50;54.50
3942;DHT22;1985;48.592;8.850;2023-06-14T01:30:51;17.50;54.80
3942;DHT22;1985;48.592;8.850;2023-06-14T01:33:22;17.50;54.70
3942;DHT22;1985;48.592;8.850;2023-06-14T01:35:51;17.50;54.70
3942;DHT22;1985;48.592;8.850;2023-06-14T01:38:20;17.50;54.70
3942;DHT22;1985;48.592;8.850;2023-06-14T01:40:48;17.50;54.80
3942;DHT22;1985;48.592;8.850;2023-06-14T01:43:15;17.40;54.90
3942;DHT22;1985;48.592;8.850;2023-06-14T01:45:42;17.40;55.10
3942;DHT22;1985;48.592;8.850;2023-06-14T01:48:09;17.40;54.90
3942;DHT22;1985;48.592;8.850;2023-06-14T01:50:34;17.40;55.00
3942;DHT22;1985;48.592;8.850;2023-06-14T01:53:00;17.40;54.90
3942;DHT22;1985;48.592;8.850;2023-06-14T01:55:26;17.40;54.80
3942;DHT22;1985;48.592;8.850;2023-06-14T01:57:52;17.40;54.80
3942;DHT22;1985;48.592;8.850;2023-06-14T02:00:18;17.30;54.90
3942;DHT22;1985;48.592;8.850;2023-06-14T02:02:44;17.20;55.20
3942;DHT22;1985;48.592;8.850;2023-06-14T02:05:11;17.20;55.60
3942;DHT22;1985;48.592;8.850;2023-06-14T02:07:37;17.10;55.70
3942;DHT22;1985;48.592;8.850;2023-06-14T02:10:04;17.10;55.50
3942;DHT22;1985;48.592;8.850;2023-06-14T02:12:30;17.10;55.60
3942;DHT22;1985;48.592;8.850;2023-06-14T02:14:55;17.10;55.90
3942;DHT22;1985;48.592;8.850;2023-06-14T02:17:22;17.10;56.10
3942;DHT22;1985;48.592;8.850;2023-06-14T02:19:48;17.10;56.00
3942;DHT22;1985;48.592;8.850;2023-06-14T02:22:15;17.00;56.20
3942;DHT22;1985;48.592;8.850;2023-06-14T02:24:41;17.00;56.20
3942;DHT22;1985;48.592;8.850;2023-06-14T02:27:07;16.90;56.00
3942;DHT22;1985;48.592;8.850;2023-06-14T02:29:35;16.90;56.20
3942;DHT22;1985;48.592;8.850;2023-06-14T02:32:01;16.90;56.50
3942;DHT22;1985;48.592;8.850;2023-06-14T02:34:27;16.90;56.60
3942;DHT22;1985;48.592;8.850;2023-06-14T02:36:52;16.90;56.30
3942;DHT22;1985;48.592;8.850;2023-06-14T02:39:18;16.90;56.30
3942;DHT22;1985;48.592;8.850;2023-06-14T02:41:46;17.00;56.40
3942;DHT22;1985;48.592;8.850;2023-06-14T02:44:13;17.00;56.20
3942;DHT22;1985;48.592;8.850;2023-06-14T02:46:39;17.00;56.50
3942;DHT22;1985;48.592;8.850;2023-06-14T02:49:05;16.80;56.50
3942;DHT22;1985;48.592;8.850;2023-06-14T02:51:30;16.80;56.70
3942;DHT22;1985;48.592;8.850;2023-06-14T02:53:56;16.80;56.90
3942;DHT22;1985;48.592;8.850;2023-06-14T02:56:22;16.70;57.10
3942;DHT22;1985;48.592;8.850;2023-06-14T02:58:48;16.80;57.10
3942;DHT22;1985;48.592;8.850;2023-06-14T03:01:14;16.70;57.00
3942;DHT22;1985;48.592;8.850;2023-06-14T03:03:40;16.70;57.00
3942;DHT22;1985;48.592;8.850;2023-06-14T03:06:05;16.60;56.80
3942;DHT22;1985;48.592;8.850;2023-06-14T03:08:32;16.60;57.00
3942;DHT22;1985;48.592;8.850;2023-06-14T03:11:04;16.60;57.10
3942;DHT22;1985;48.592;8.850;2023-06-14T03:13:34;16.60;57.20
3942;DHT22;1985;48.592;8.850;2023-06-14T03:16:00;16.60;57.60
3942;DHT22;1985;48.592;8.850;2023-06-14T03:18:31;16.50;57.50
3942;DHT22;1985;48.592;8.850;2023-06-14T03:21:01;16.60;57.50
3942;DHT22;1985;48.592;8.850;2023-06-14T03:23:27;16.60;57.10
3942;DHT22;1985;48.592;8.850;2023-06-14T03:25:52;16.70;57.00
3942;DHT22;1985;48.592;8.850;2023-06-14T03:28:18;16.70;56.90
3942;DHT22;1985;48.592;8.850;2023-06-14T03:30:44;16.70;57.00
3942;DHT22;1985;48.592;8.850;2023-06-14T03:33:10;16.70;56.90
3942;DHT22;1985;48.592;8.850;2023-06-14T03:35:36;16.80;57.00
3942;DHT22;1985;48.592;8.850;2023-06-14T03:38:01;16.80;57.00
3942;DHT22;1985;48.592;8.850;2023-06-14T03:40:29;16.80;56.90
3942;DHT22;1985;48.592;8.850;2023-06-14T03:42:55;16.80;56.90
3942;DHT22;1985;48.592;8.850;2023-06-14T03:45:21;16.80;57.10
3942;DHT22;1985;48.592;8.850;2023-06-14T03:47:47;16.80;57.20
3942;DHT22;1985;48.592;8.850;2023-06-14T03:50:12;16.80;57.30
3942;DHT22;1985;48.592;8.850;2023-06-14T03:52:38;16.80;57.20
3942;DHT22;1985;48.592;8.850;2023-06-14T03:55:04;16.80;57.40
3942;DHT22;1985;48.592;8.850;2023-06-14T03:57:30;16.80;57.30
3942;DHT22;1985;48.592;8.850;2023-06-14T03:59:56;16.90;57.40
3942;DHT22;1985;48.592;8.850;2023-06-14T04:02:22;16.90;57.60
3942;DHT22;1985;48.592;8.850;2023-06-14T04:04:48;16.90;57.60
3942;DHT22;1985;48.592;8.850;2023-06-14T04:07:14;16.90;57.60
3942;DHT22;1985;48.592;8.850;2023-06-14T04:09:41;17.00;57.70
3942;DHT22;1985;48.592;8.850;2023-06-14T04:12:07;17.00;57.80
3942;DHT22;1985;48.592;8.850;2023-06-14T04:14:34;17.10;57.70
3942;DHT22;1985;48.592;8.850;2023-06-14T04:17:00;17.10;57.60
3942;DHT22;1985;48.592;8.850;2023-06-14T04:19:26;17.10;58.60
3942;DHT22;1985;48.592;8.850;2023-06-14T04:21:51;17.10;58.90
3942;DHT22;1985;48.592;8.850;2023-06-14T04:24:17;17.10;58.60
3942;DHT22;1985;48.592;8.850;2023-06-14T04:26:44;17.10;58.50
3942;DHT22;1985;48.592;8.850;2023-06-14T04:29:13;17.10;58.60
3942;DHT22;1985;48.592;8.850;2023-06-14T04:31:45;17.20;58.90
3942;DHT22;1985;48.592;8.850;2023-06-14T04:34:11;17.20;59.30
3942;DHT22;1985;48.592;8.850;2023-06-14T04:36:41;17.30;59.40
3942;DHT22;1985;48.592;8.850;2023-06-14T04:39:17;17.40;59.30
3942;DHT22;1985;48.592;8.850;2023-06-14T04:41:44;17.40;59.10
3942;DHT22;1985;48.592;8.850;2023-06-14T04:44:10;17.40;59.50
3942;DHT22;1985;48.592;8.850;2023-06-14T04:46:36;17.20;60.60
3942;DHT22;1985;48.592;8.850;2023-06-14T04:49:14;17.20;60.10
3942;DHT22;1985;48.592;8.850;2023-06-14T04:51:41;17.20;60.00
3942;DHT22;1985;48.592;8.850;2023-06-14T04:54:08;17.20;60.30
3942;DHT22;1985;48.592;8.850;2023-06-14T04:56:35;17.10;60.60
3942;DHT22;1985;48.592;8.850;2023-06-14T04:59:03;16.90;61.20
3942;DHT22;1985;48.592;8.850;2023-06-14T05:01:31;16.90;60.90
3942;DHT22;1985;48.592;8.850;2023-06-14T05:03:57;16.70;60.80
3942;DHT22;1985;48.592;8.850;2023-06-14T05:06:23;16.40;61.60
3942;DHT22;1985;48.592;8.850;2023-06-14T05:08:49;16.20;62.60
3942;DHT22;1985;48.592;8.850;2023-06-14T05:11:16;16.20;62.30
3942;DHT22;1985;48.592;8.850;2023-06-14T05:13:42;16.20;63.00
3942;DHT22;1985;48.592;8.850;2023-06-14T05:16:09;16.30;63.10
3942;DHT22;1985;48.592;8.850;2023-06-14T05:18:34;16.30;63.80
3942;DHT22;1985;48.592;8.850;2023-06-14T05:21:01;16.40;63.40
3942;DHT22;1985;48.592;8.850;2023-06-14T05:23:27;16.50;64.00
3942;DHT22;1985;48.592;8.850;2023-06-14T05:25:52;16.50;63.80
3942;DHT22;1985;48.592;8.850;2023-06-14T05:28:18;16.60;63.90
3942;DHT22;1985;48.592;8.850;2023-06-14T05:30:44;16.70;63.40
3942;DHT22;1985;48.592;8.850;2023-06-14T05:33:09;16.80;63.90
3942;DHT22;1985;48.592;8.850;2023-06-14T05:35:35;16.90;62.10
3942;DHT22;1985;48.592;8.850;2023-06-14T05:38:01;17.10;62.10
3942;DHT22;1985;48.592;8.850;2023-06-14T05:40:26;16.80;62.90
3942;DHT22;1985;48.592;8.850;2023-06-14T05:42:52;16.70;64.40
3942;DHT22;1985;48.592;8.850;2023-06-14T05:45:18;16.80;65.00
3942;DHT22;1985;48.592;8.850;2023-06-14T05:47:43;16.70;64.80
3942;DHT22;1985;48.592;8.850;2023-06-14T05:50:09;16.60;65.60
3942;DHT22;1985;48.592;8.850;2023-06-14T05:52:35;16.40;65.70
3942;DHT22;1985;48.592;8.850;2023-06-14T05:55:02;16.10;67.10
3942;DHT22;1985;48.592;8.850;2023-06-14T05:57:28;16.10;67.90
3942;DHT22;1985;48.592;8.850;2023-06-14T05:59:54;16.20;68.20
3942;DHT22;1985;48.592;8.850;2023-06-14T06:02:20;16.30;67.90
3942;DHT22;1985;48.592;8.850;2023-06-14T06:04:45;16.50;66.30
3942;DHT22;1985;48.592;8.850;2023-06-14T06:07:11;16.80;64.90
3942;DHT22;1985;48.592;8.850;2023-06-14T06:09:37;17.00;64.40
3942;DHT22;1985;48.592;8.850;2023-06-14T06:12:05;17.40;64.10
3942;DHT22;1985;48.592;8.850;2023-06-14T06:14:31;17.60;63.40
3942;DHT22;1985;48.592;8.850;2023-06-14T06:16:57;17.80;62.70
3942;DHT22;1985;48.592;8.850;2023-06-14T06:19:22;18.10;62.70
3942;DHT22;1985;48.592;8.850;2023-06-14T06:21:48;18.30;61.00
3942;DHT22;1985;48.592;8.850;2023-06-14T06:24:13;18.40;59.70
3942;DHT22;1985;48.592;8.850;2023-06-14T06:26:39;18.50;59.10
3942;DHT22;1985;48.592;8.850;2023-06-14T06:29:05;18.70;58.50
3942;DHT22;1985;48.592;8.850;2023-06-14T06:31:31;18.90;57.60
3942;DHT22;1985;48.592;8.850;2023-06-14T06:33:57;19.00;56.80
3942;DHT22;1985;48.592;8.850;2023-06-14T06:36:22;19.10;56.50
3942;DHT22;1985;48.592;8.850;2023-06-14T06:38:48;19.20;56.50
3942;DHT22;1985;48.592;8.850;2023-06-14T06:41:14;19.30;56.50
3942;DHT22;1985;48.592;8.850;2023-06-14T06:43:39;19.50;56.60
3942;DHT22;1985;48.592;8.850;2023-06-14T06:46:05;19.50;56.20
3942;DHT22;1985;48.592;8.850;2023-06-14T06:48:31;19.60;56.20
3942;DHT22;1985;48.592;8.850;2023-06-14T06:50:56;19.70;55.90
3942;DHT22;1985;48.592;8.850;2023-06-14T06:53:22;19.70;56.50
3942;DHT22;1985;48.592;8.850;2023-06-14T06:55:48;19.70;56.60
3942;DHT22;1985;48.592;8.850;2023-06-14T06:58:14;19.80;57.20
3942;DHT22;1985;48.592;8.850;2023-06-14T07:00:40;20.00;57.60
3942;DHT22;1985;48.592;8.850;2023-06-14T07:03:06;20.00;56.70
3942;DHT22;1985;48.592;8.850;2023-06-14T07:05:32;20.10;56.30
3942;DHT22;1985;48.592;8.850;2023-06-14T07:07:58;20.30;56.40
3942;DHT22;1985;48.592;8.850;2023-06-14T07:10:23;20.30;55.90
3942;DHT22;1985;48.592;8.850;2023-06-14T07:12:52;20.40;55.70
3942;DHT22;1985;48.592;8.850;2023-06-14T07:15:17;20.40;55.60
3942;DHT22;1985;48.592;8.850;2023-06-14T07:17:43;20.40;55.50
3942;DHT22;1985;48.592;8.850;2023-06-14T07:20:09;20.40;55.40
3942;DHT22;1985;48.592;8.850;2023-06-14T07:22:38;20.40;55.00
3942;DHT22;1985;48.592;8.850;2023-06-14T07:25:07;20.40;55.50
3942;DHT22;1985;48.592;8.850;2023-06-14T07:27:33;20.50;55.60
3942;DHT22;1985;48.592;8.850;2023-06-14T07:29:59;20.60;56.10
3942;DHT22;1985;48.592;8.850;2023-06-14T07:32:25;20.80;55.50
3942;DHT22;1985;48.592;8.850;2023-06-14T07:34:50;20.90;54.80
3942;DHT22;1985;48.592;8.850;2023-06-14T07:37:16;21.00;53.90
3942;DHT22;1985;48.592;8.850;2023-06-14T07:39:41;21.00;53.10
3942;DHT22;1985;48.592;8.850;2023-06-14T07:42:07;21.10;53.10
3942;DHT22;1985;48.592;8.850;2023-06-14T07:44:33;21.10;53.20
3942;DHT22;1985;48.592;8.850;2023-06-14T07:46:58;21.10;53.60
3942;DHT22;1985;48.592;8.850;2023-06-14T07:49:25;21.20;53.80
3942;DHT22;1985;48.592;8.850;2023-06-14T07:51:51;21.20;53.40
3942;DHT22;1985;48.592;8.850;2023-06-14T07:54:17;21.20;53.10
3942;DHT22;1985;48.592;8.850;2023-06-14T07:56:43;21.30;53.50
3942;DHT22;1985;48.592;8.850;2023-06-14T07:59:08;21.30;53.90
3942;DHT22;1985;48.592;8.850;2023-06-14T08:01:34;21.40;53.20
3942;DHT22;1985;48.592;8.850;2023-06-14T08:04:00;21.30;53.30
3942;DHT22;1985;48.592;8.850;2023-06-14T08:06:26;21.30;53.60
3942;DHT22;1985;48.592;8.850;2023-06-14T08:08:52;21.50;53.30
3942;DHT22;1985;48.592;8.850;2023-06-14T08:11:18;21.60;52.80
3942;DHT22;1985;48.592;8.850;2023-06-14T08:13:43;21.60;53.00
3942;DHT22;1985;48.592;8.850;2023-06-14T08:16:09;21.80;52.40
3942;DHT22;1985;48.592;8.850;2023-06-14T08:18:36;21.80;52.50
3942;DHT22;1985;48.592;8.850;2023-06-14T08:21:01;21.90;52.20
3942;DHT22;1985;48.592;8.850;2023-06-14T08:23:28;21.90;52.80
3942;DHT22;1985;48.592;8.850;2023-06-14T08:25:54;21.90;52.80
3942;DHT22;1985;48.592;8.850;2023-06-14T08:28:20;22.00;52.80
3942;DHT22;1985;48.592;8.850;2023-06-14T08:30:46;22.10;52.90
3942;DHT22;1985;48.592;8.850;2023-06-14T08:33:11;22.20;52.50
3942;DHT22;1985;48.592;8.850;2023-06-14T08:35:37;22.20;52.00
3942;DHT22;1985;48.592;8.850;2023-06-14T08:38:04;22.20;51.50
3942;DHT22;1985;48.592;8.850;2023-06-14T08:40:31;22.30;52.00
3942;DHT22;1985;48.592;8.850;2023-06-14T08:42:56;22.30;51.10
3942;DHT22;1985;48.592;8.850;2023-06-14T08:45:23;22.30;51.50
3942;DHT22;1985;48.592;8.850;2023-06-14T08:47:53;22.20;52.00
3942;DHT22;1985;48.592;8.850;2023-06-14T08:50:24;22.30;51.80
3942;DHT22;1985;48.592;8.850;2023-06-14T08:52:54;22.40;49.40
3942;DHT22;1985;48.592;8.850;2023-06-14T08:55:21;22.50;49.50
3942;DHT22;1985;48.592;8.850;2023-06-14T08:57:51;22.40;50.90
3942;DHT22;1985;48.592;8.850;2023-06-14T09:00:19;22.60;52.10
3942;DHT22;1985;48.592;8.850;2023-06-14T09:02:46;22.80;51.10
3942;DHT22;1985;48.592;8.850;2023-06-14T09:05:12;22.90;51.30
3942;DHT22;1985;48.592;8.850;2023-06-14T09:07:44;22.70;51.20
3942;DHT22;1985;48.592;8.850;2023-06-14T09:10:11;22.90;50.10
3942;DHT22;1985;48.592;8.850;2023-06-14T09:12:37;23.00;49.50
3942;DHT22;1985;48.592;8.850;2023-06-14T09:15:04;23.20;49.10
3942;DHT22;1985;48.592;8.850;2023-06-14T09:17:35;23.30;49.60
3942;DHT22;1985;48.592;8.850;2023-06-14T09:20:05;23.30;48.80
3942;DHT22;1985;48.592;8.850;2023-06-14T09:22:35;23.20;48.80
3942;DHT22;1985;48.592;8.850;2023-06-14T09:25:01;23.00;49.10
3942;DHT22;1985;48.592;8.850;2023-06-14T09:27:27;23.10;49.20
3942;DHT22;1985;48.592;8.850;2023-06-14T09:29:53;23.20;48.80
3942;DHT22;1985;48.592;8.850;2023-06-14T09:32:20;23.20;49.70
3942;DHT22;1985;48.592;8.850;2023-06-14T09:34:46;23.30;48.40
3942;DHT22;1985;48.592;8.850;2023-06-14T09:37:12;23.40;48.70
3942;DHT22;1985;48.592;8.850;2023-06-14T09:39:50;23.50;48.60
3942;DHT22;1985;48.592;8.850;2023-06-14T09:42:17;23.50;48.40
3942;DHT22;1985;48.592;8.850;2023-06-14T09:44:47;23.50;47.80
3942;DHT22;1985;48.592;8.850;2023-06-14T09:47:17;23.30;48.20
3942;DHT22;1985;48.592;8.850;2023-06-14T09:49:43;23.50;48.40
3942;DHT22;1985;48.592;8.850;2023-06-14T09:52:15;23.70;48.40
3942;DHT22;1985;48.592;8.850;2023-06-14T09:54:42;23.80;47.30
3942;DHT22;1985;48.592;8.850;2023-06-14T09:57:10;23.80;47.90
3942;DHT22;1985;48.592;8.850;2023-06-14T09:59:41;23.90;48.50
3942;DHT22;1985;48.592;8.850;2023-06-14T10:02:11;24.10;47.30
3942;DHT22;1985;48.592;8.850;2023-06-14T10:04:43;24.10;47.30
3942;DHT22;1985;48.592;8.850;2023-06-14T10:07:14;24.20;46.50
3942;DHT22;1985;48.592;8.850;2023-06-14T10:09:42;24.40;46.60
3942;DHT22;1985;48.592;8.850;2023-06-14T10:12:14;24.50;46.10
3942;DHT22;1985;48.592;8.850;2023-06-14T10:14:47;24.70;45.40
3942;DHT22;1985;48.592;8.850;2023-06-14T10:17:20;24.90;45.80
3942;DHT22;1985;48.592;8.850;2023-06-14T10:20:02;24.90;45.70
3942;DHT22;1985;48.592;8.850;2023-06-14T10:22:42;25.10;46.30
3942;DHT22;1985;48.592;8.850;2023-06-14T10:25:26;25.40;46.70
3942;DHT22;1985;48.592;8.850;2023-06-14T10:27:53;26.00;46.80
3942;DHT22;1985;48.592;8.850;2023-06-14T10:30:25;26.10;44.90
3942;DHT22;1985;48.592;8.850;2023-06-14T10:33:05;26.30;45.50
3942;DHT22;1985;48.592;8.850;2023-06-14T10:35:34;26.60;44.20
3942;DHT22;1985;48.592;8.850;2023-06-14T10:38:10;26.80;44.20
3942;DHT22;1985;48.592;8.850;2023-06-14T10:40:38;27.10;42.40
3942;DHT22;1985;48.592;8.850;2023-06-14T10:43:23;27.10;43.70
3942;DHT22;1985;48.592;8.850;2023-06-14T10:46:17;26.80;42.20
3942;DHT22;1985;48.592;8.850;2023-06-14T10:48:44;26.60;43.30
3942;DHT22;1985;48.592;8.850;2023-06-14T10:51:30;26.80;42.40
3942;DHT22;1985;48.592;8.850;2023-06-14T10:54:12;26.30;42.10
3942;DHT22;1985;48.592;8.850;2023-06-14T10:56:50;26.40;42.90
3942;DHT22;1985;48.592;8.850;2023-06-14T10:59:16;26.70;42.40
3942;DHT22;1985;48.592;8.850;2023-06-14T11:04:46;27.40;40.40
3942;DHT22;1985;48.592;8.850;2023-06-14T11:12:32;28.00;39.50
3942;DHT22;1985;48.592;8.850;2023-06-14T11:15:01;28.00;38.10
3942;DHT22;1985;48.592;8.850;2023-06-14T11:17:26;28.00;40.30
3942;DHT22;1985;48.592;8.850;2023-06-14T11:20:08;28.10;40.60
3942;DHT22;1985;48.592;8.850;2023-06-14T11:22:40;28.20;41.10
3942;DHT22;1985;48.592;8.850;2023-06-14T11:25:09;28.30;39.50
3942;DHT22;1985;48.592;8.850;2023-06-14T11:27:35;28.20;38.30
3942;DHT22;1985;48.592;8.850;2023-06-14T11:30:01;28.00;38.30
3942;DHT22;1985;48.592;8.850;2023-06-14T11:32:26;27.90;37.80
3942;DHT22;1985;48.592;8.850;2023-06-14T11:34:52;27.90;38.10
3942;DHT22;1985;48.592;8.850;2023-06-14T11:37:18;27.80;38.30
3942;DHT22;1985;48.592;8.850;2023-06-14T11:39:44;27.90;39.00
3942;DHT22;1985;48.592;8.850;2023-06-14T11:42:16;28.00;38.30
3942;DHT22;1985;48.592;8.850;2023-06-14T11:44:42;28.20;38.50
3942;DHT22;1985;48.592;8.850;2023-06-14T11:47:07;28.30;39.50
3942;DHT22;1985;48.592;8.850;2023-06-14T11:49:36;28.30;37.60
3942;DHT22;1985;48.592;8.850;2023-06-14T11:52:02;27.90;37.20
3942;DHT22;1985;48.592;8.850;2023-06-14T11:54:28;27.70;38.40
3942;DHT22;1985;48.592;8.850;2023-06-14T11:56:53;27.10;38.40
3942;DHT22;1985;48.592;8.850;2023-06-14T11:59:20;27.20;39.30
3942;DHT22;1985;48.592;8.850;2023-06-14T12:01:47;27.40;38.70
3942;DHT22;1985;48.592;8.850;2023-06-14T12:04:13;27.60;38.30
3942;DHT22;1985;48.592;8.850;2023-06-14T12:06:39;27.60;38.40
3942;DHT22;1985;48.592;8.850;2023-06-14T12:09:06;27.80;38.30
3942;DHT22;1985;48.592;8.850;2023-06-14T12:11:38;27.60;38.00
3942;DHT22;1985;48.592;8.850;2023-06-14T12:14:05;27.50;38.50
3942;DHT22;1985;48.592;8.850;2023-06-14T12:16:35;27.40;37.90
3942;DHT22;1985;48.592;8.850;2023-06-14T12:19:14;27.30;37.10
3942;DHT22;1985;48.592;8.850;2023-06-14T12:21:41;26.80;39.60
3942;DHT22;1985;48.592;8.850;2023-06-14T12:24:07;26.90;39.60
3942;DHT22;1985;48.592;8.850;2023-06-14T12:26:33;27.00;39.40
3942;DHT22;1985;48.592;8.850;2023-06-14T12:28:59;27.20;38.30
3942;DHT22;1985;48.592;8.850;2023-06-14T12:31:25;27.30;37.80
3942;DHT22;1985;48.592;8.850;2023-06-14T12:33:52;27.50;38.50
3942;DHT22;1985;48.592;8.850;2023-06-14T12:36:17;27.70;38.70
3942;DHT22;1985;48.592;8.850;2023-06-14T12:38:43;27.80;39.30
3942;DHT22;1985;48.592;8.850;2023-06-14T12:41:09;27.70;40.10
3942;DHT22;1985;48.592;8.850;2023-06-14T12:43:35;27.40;39.60
3942;DHT22;1985;48.592;8.850;2023-06-14T12:46:00;27.10;39.90
3942;DHT22;1985;48.592;8.850;2023-06-14T12:48:26;27.10;39.70
3942;DHT22;1985;48.592;8.850;2023-06-14T12:50:57;27.00;40.40
3942;DHT22;1985;48.592;8.850;2023-06-14T12:53:23;27.20;40.70
3942;DHT22;1985;48.592;8.850;2023-06-14T12:55:48;27.20;39.40
3942;DHT22;1985;48.592;8.850;2023-06-14T12:58:14;27.40;39.30
3942;DHT22;1985;48.592;8.850;2023-06-14T13:00:42;27.40;39.40
3942;DHT22;1985;48.592;8.850;2023-06-14T13:03:09;27.40;40.20
3942;DHT22;1985;48.592;8.850;2023-06-14T13:05:35;27.30;39.60
3942;DHT22;1985;48.592;8.850;2023-06-14T13:08:01;27.20;39.90
3942;DHT22;1985;48.592;8.850;2023-06-14T13:10:26;27.00;39.80
3942;DHT22;1985;48.592;8.850;2023-06-14T13:12:53;26.70;39.10
3942;DHT22;1985;48.592;8.850;2023-06-14T13:15:18;26.60;39.70
3942;DHT22;1985;48.592;8.850;2023-06-14T13:17:44;26.70;40.30
3942;DHT22;1985;48.592;8.850;2023-06-14T13:20:14;26.70;40.70
3942;DHT22;1985;48.592;8.850;2023-06-14T13:22:41;26.50;41.40
3942;DHT22;1985;48.592;8.850;2023-06-14T13:25:06;26.40;41.50
3942;DHT22;1985;48.592;8.850;2023-06-14T13:27:32;26.60;41.10
3942;DHT22;1985;48.592;8.850;2023-06-14T13:29:58;26.60;40.60
3942;DHT22;1985;48.592;8.850;2023-06-14T13:32:23;26.40;40.50
3942;DHT22;1985;48.592;8.850;2023-06-14T13:34:49;26.40;40.50
3942;DHT22;1985;48.592;8.850;2023-06-14T13:37:15;26.40;40.80
3942;DHT22;1985;48.592;8.850;2023-06-14T13:39:41;26.40;40.80
3942;DHT22;1985;48.592;8.850;2023-06-14T13:42:07;26.30;41.40
3942;DHT22;1985;48.592;8.850;2023-06-14T13:44:32;26.40;41.30
3942;DHT22;1985;48.592;8.850;2023-06-14T13:46:58;26.10;41.30
3942;DHT22;1985;48.592;8.850;2023-06-14T13:49:24;26.00;41.80
3942;DHT22;1985;48.592;8.850;2023-06-14T13:51:49;25.70;41.70
3942;DHT22;1985;48.592;8.850;2023-06-14T13:54:18;25.80;41.80
3942;DHT22;1985;48.592;8.850;2023-06-14T13:56:44;26.00;42.00
3942;DHT22;1985;48.592;8.850;2023-06-14T13:59:10;26.10;42.30
3942;DHT22;1985;48.592;8.850;2023-06-14T14:01:36;26.20;42.50
3942;DHT22;1985;48.592;8.850;2023-06-14T14:04:01;26.30;40.80
3942;DHT22;1985;48.592;8.850;2023-06-14T14:06:27;26.10;42.40
3942;DHT22;1985;48.592;8.850;2023-06-14T14:08:53;25.70;42.80
3942;DHT22;1985;48.592;8.850;2023-06-14T14:11:19;25.40;42.90
3942;DHT22;1985;48.592;8.850;2023-06-14T14:13:45;25.70;43.00
3942;DHT22;1985;48.592;8.850;2023-06-14T14:16:12;25.80;42.20
3942;DHT22;1985;48.592;8.850;2023-06-14T14:18:38;26.00;42.20
3942;DHT22;1985;48.592;8.850;2023-06-14T14:21:04;25.80;42.80
3942;DHT22;1985;48.592;8.850;2023-06-14T14:23:30;25.80;42.60
3942;DHT22;1985;48.592;8.850;2023-06-14T14:25:55;25.70;42.30
3942;DHT22;1985;48.592;8.850;2023-06-14T14:28:22;25.70;42.40
3942;DHT22;1985;48.592;8.850;2023-06-14T14:30:47;25.60;42.50
3942;DHT22;1985;48.592;8.850;2023-06-14T14:33:14;25.70;41.90
3942;DHT22;1985;48.592;8.850;2023-06-14T14:35:41;25.70;41.70
3942;DHT22;1985;48.592;8.850;2023-06-14T14:38:07;25.60;41.60
3942;DHT22;1985;48.592;8.850;2023-06-14T14:40:33;25.70;41.60
3942;DHT22;1985;48.592;8.850;2023-06-14T14:42:59;25.60;42.00
3942;DHT22;1985;48.592;8.850;2023-06-14T14:45:24;25.40;42.00
3942;DHT22;1985;48.592;8.850;2023-06-14T14:47:50;25.30;42.30
3942;DHT22;1985;48.592;8.850;2023-06-14T14:50:16;25.20;42.00
3942;DHT22;1985;48.592;8.850;2023-06-14T14:52:42;25.30;42.60
3942;DHT22;1985;48.592;8.850;2023-06-14T14:55:08;25.30;42.80
3942;DHT22;1985;48.592;8.850;2023-06-14T14:57:33;25.30;42.70
3942;DHT22;1985;48.592;8.850;2023-06-14T14:59:59;25.30;43.20
3942;DHT22;1985;48.592;8.850;2023-06-14T15:02:25;25.20;42.90
3942;DHT22;1985;48.592;8.850;2023-06-14T15:04:50;25.20;42.20
3942;DHT22;1985;48.592;8.850;2023-06-14T15:07:17;25.10;42.10
3942;DHT22;1985;48.592;8.850;2023-06-14T15:09:42;25.10;42.30
3942;DHT22;1985;48.592;8.850;2023-06-14T15:12:08;25.20;42.20
3942;DHT22;1985;48.592;8.850;2023-06-14T15:14:36;25.10;42.50
3942;DHT22;1985;48.592;8.850;2023-06-14T15:17:01;25.00;42.50
3942;DHT22;1985;48.592;8.850;2023-06-14T15:19:28;24.90;43.10
3942;DHT22;1985;48.592;8.850;2023-06-14T15:21:53;25.10;42.90
3942;DHT22;1985;48.592;8.850;2023-06-14T15:24:20;25.10;42.10
3942;DHT22;1985;48.592;8.850;2023-06-14T15:26:45;25.10;42.00
3942;DHT22;1985;48.592;8.850;2023-06-14T15:29:11;25.10;42.50
3942;DHT22;1985;48.592;8.850;2023-06-14T15:31:36;25.00;42.20
3942;DHT22;1985;48.592;8.850;2023-06-14T15:34:02;25.00;41.70
3942;DHT22;1985;48.592;8.850;2023-06-14T15:36:28;24.90;41.80
3942;DHT22;1985;48.592;8.850;2023-06-14T15:38:53;24.90;42.20
3942;DHT22;1985;48.592;8.850;2023-06-14T15:41:19;24.90;42.30
3942;DHT22;1985;48.592;8.850;2023-06-14T15:43:44;24.90;42.80
3942;DHT22;1985;48.592;8.850;2023-06-14T15:46:10;24.80;43.40
3942;DHT22;1985;48.592;8.850;2023-06-14T15:48:36;24.70;43.60
3942;DHT22;1985;48.592;8.850;2023-06-14T15:51:01;24.70;43.20
3942;DHT22;1985;48.592;8.850;2023-06-14T15:53:27;24.70;43.10
3942;DHT22;1985;48.592;8.850;2023-06-14T15:55:52;24.50;44.20
3942;DHT22;1985;48.592;8.850;2023-06-14T15:58:18;24.50;43.60
3942;DHT22;1985;48.592;8.850;2023-06-14T16:00:44;24.50;43.30
3942;DHT22;1985;48.592;8.850;2023-06-14T16:03:09;24.60;43.00
3942;DHT22;1985;48.592;8.850;2023-06-14T16:05:35;24.40;43.20
3942;DHT22;1985;48.592;8.850;2023-06-14T16:08:00;24.40;43.40
3942;DHT22;1985;48.592;8.850;2023-06-14T16:10:26;24.50;43.10